Terminal Aerodrome Forecast
Issued by NWS

Home | Current Version | Previous Version | Text Only | Print | Product List | Glossary On
Versions: 1 2 3 4 5 6 7 8 9 10 11 12 13 14 15 16 17 18 19 20 21 22 23 24 25 26 27 28
000
FTUS43 KSGF 201700
TAFBBG
TAF
KBBG 201720Z 2018/2118 20005KT P6SM SCT025
      TEMPO 2018/2020 BKN025
     FM202000 21006KT P6SM FEW030 SCT050
     FM210100 21004KT P6SM FEW100 SCT250 PROB30 2107/2111 4SM -TSRA
      OVC050CB
     FM211100 30008KT P6SM SCT050 OVC150=

USA.gov is the U.S. government's official web portal to all federal, state and local government web resources and services.